Time;durP1;ratioP1;P1;durP2;ratioP2;P2;SDS_P1;SDS_P2;PMS_P1;PMS_P2;Temp;Humidity;BMP_temperature;BMP_pressure;BME280_temperature;BME280_humidity;BME280_pressure;Samples;Min_cycle;Max_cycle;Signal;HPM_P1;HPM_P2
2023/01/03 00:00:50;;;;;;;116.35;58.83;;;;;;;;;;6276138;22;20073;-68
2023/01/03 00:03:16;;;;;;;112.07;58.05;;;;;;;;;;6276522;22;20003;-67
2023/01/03 00:05:46;;;;;;;110.60;58.22;;;;;;;;;;6276216;22;20004;-71
2023/01/03 00:08:14;;;;;;;112.90;58.65;;;;;;;;;;6276198;22;20368;-68
2023/01/03 00:10:40;;;;;;;108.30;58.08;;;;;;;;;;6276574;22;20057;-68
2023/01/03 00:13:06;;;;;;;108.10;56.20;;;;;;;;;;6276228;22;19999;-68
2023/01/03 00:15:36;;;;;;;108.72;54.88;;;;;;;;;;6276042;22;20004;-75
2023/01/03 00:18:02;;;;;;;99.60;53.08;;;;;;;;;;6276272;22;20015;-68
2023/01/03 00:20:28;;;;;;;95.10;50.75;;;;;;;;;;6275971;22;20072;-68
2023/01/03 00:22:54;;;;;;;89.28;48.30;;;;;;;;;;6276225;22;20004;-68
2023/01/03 00:25:20;;;;;;;91.50;51.15;;;;;;;;;;6276416;22;20007;-67
2023/01/03 00:27:46;;;;;;;95.88;52.35;;;;;;;;;;6275313;22;20008;-68
2023/01/03 00:30:13;;;;;;;97.75;51.95;;;;;;;;;;6276264;22;20023;-67
2023/01/03 00:32:39;;;;;;;89.95;49.05;;;;;;;;;;6275131;22;20004;-67
2023/01/03 00:35:05;;;;;;;89.60;48.72;;;;;;;;;;6272543;22;20030;-67
2023/01/03 00:37:31;;;;;;;89.78;49.05;;;;;;;;;;6273087;22;20000;-68
2023/01/03 00:39:57;;;;;;;84.93;47.40;;;;;;;;;;6275753;22;20095;-68
2023/01/03 00:42:23;;;;;;;90.65;49.40;;;;;;;;;;6275619;22;20000;-68
2023/01/03 00:44:49;;;;;;;86.85;46.97;;;;;;;;;;6248327;22;20003;-68
2023/01/03 00:47:15;;;;;;;83.55;49.72;;;;;;;;;;6275446;22;20027;-68
2023/01/03 00:49:41;;;;;;;88.55;51.50;;;;;;;;;;6275633;22;20069;-68
2023/01/03 00:52:07;;;;;;;106.75;54.33;;;;;;;;;;6275926;22;20008;-67
2023/01/03 00:54:33;;;;;;;98.18;52.65;;;;;;;;;;6275707;22;20452;-68
2023/01/03 00:56:59;;;;;;;97.05;50.00;;;;;;;;;;6276048;22;20330;-68
2023/01/03 00:59:26;;;;;;;103.97;53.00;;;;;;;;;;6272686;22;19996;-68
2023/01/03 01:01:53;;;;;;;108.72;55.97;;;;;;;;;;6272938;22;20490;-68
2023/01/03 01:04:19;;;;;;;100.95;52.75;;;;;;;;;;6275498;22;20000;-67
2023/01/03 01:06:46;;;;;;;109.78;53.80;;;;;;;;;;6275396;22;20433;-69
2023/01/03 01:09:13;;;;;;;101.57;51.90;;;;;;;;;;6275544;22;20057;-67
2023/01/03 01:11:40;;;;;;;88.38;47.80;;;;;;;;;;6275950;22;20075;-67
2023/01/03 01:14:18;;;;;;;96.90;51.17;;;;;;;;;;6275376;22;20330;-67
2023/01/03 01:16:45;;;;;;;103.65;53.15;;;;;;;;;;6275916;22;19996;-67
2023/01/03 01:19:11;;;;;;;91.15;49.17;;;;;;;;;;6275671;22;20023;-67
2023/01/03 01:21:37;;;;;;;88.93;48.42;;;;;;;;;;6275638;22;20030;-68
2023/01/03 01:24:03;;;;;;;86.85;45.78;;;;;;;;;;6275924;22;19999;-67
2023/01/03 01:26:29;;;;;;;78.63;45.40;;;;;;;;;;6275018;22;19999;-67
2023/01/03 01:28:56;;;;;;;79.95;44.95;;;;;;;;;;6275166;22;20010;-68
2023/01/03 01:31:23;;;;;;;86.20;48.03;;;;;;;;;;6275554;22;20006;-68
2023/01/03 01:33:50;;;;;;;88.78;48.38;;;;;;;;;;6275506;22;19996;-68
2023/01/03 01:36:16;;;;;;;95.15;48.15;;;;;;;;;;6275046;22;20093;-69
2023/01/03 01:38:42;;;;;;;91.32;48.85;;;;;;;;;;6275131;22;19999;-67
2023/01/03 01:41:11;;;;;;;91.32;49.88;;;;;;;;;;6277027;22;20019;-68
2023/01/03 01:46:39;;;;;;;102.15;50.13;;;;;;;;;;6277813;22;20096;-67
2023/01/03 01:49:05;;;;;;;104.50;53.08;;;;;;;;;;6277325;22;20004;-67
2023/01/03 01:51:34;;;;;;;101.13;53.78;;;;;;;;;;6276848;22;20000;-68
2023/01/03 01:54:01;;;;;;;97.97;52.40;;;;;;;;;;6277453;22;20007;-68
2023/01/03 01:56:47;;;;;;;103.97;51.85;;;;;;;;;;6277442;22;20000;-67
2023/01/03 01:59:13;;;;;;;99.97;53.75;;;;;;;;;;6276829;22;20008;-68
2023/01/03 02:01:41;;;;;;;96.05;51.38;;;;;;;;;;6277063;22;20008;-68
2023/01/03 02:04:09;;;;;;;100.10;51.17;;;;;;;;;;6277479;22;20003;-68
2023/01/03 02:06:35;;;;;;;104.88;53.15;;;;;;;;;;6276981;22;20007;-67
2023/01/03 02:09:01;;;;;;;103.72;53.67;;;;;;;;;;6277356;22;20102;-68
2023/01/03 02:11:27;;;;;;;97.25;51.75;;;;;;;;;;6277259;22;20319;-68
2023/01/03 02:14:12;;;;;;;97.45;50.45;;;;;;;;;;6276957;22;20007;-69
2023/01/03 02:16:56;;;;;;;93.85;49.10;;;;;;;;;;6277201;22;20052;-68
2023/01/03 02:19:41;;;;;;;92.05;50.42;;;;;;;;;;6277001;22;20027;-68
2023/01/03 02:22:30;;;;;;;85.95;45.58;;;;;;;;;;6276514;22;20434;-68
2023/01/03 02:25:09;;;;;;;81.70;45.85;;;;;;;;;;6275470;22;20426;-68
2023/01/03 02:27:47;;;;;;;84.43;47.35;;;;;;;;;;6276587;22;20034;-67
2023/01/03 02:30:19;;;;;;;82.90;45.22;;;;;;;;;;6277097;22;20093;-68
2023/01/03 02:32:48;;;;;;;81.75;44.63;;;;;;;;;;6277189;22;20074;-68
2023/01/03 02:35:36;;;;;;;76.05;42.38;;;;;;;;;;6276992;22;20049;-68
2023/01/03 02:38:11;;;;;;;78.55;44.53;;;;;;;;;;6276767;22;20422;-68
2023/01/03 02:40:40;;;;;;;83.75;46.13;;;;;;;;;;6249753;22;20385;-68
2023/01/03 02:43:25;;;;;;;81.25;45.80;;;;;;;;;;6277100;22;20005;-70
2023/01/03 02:45:58;;;;;;;82.65;45.70;;;;;;;;;;6276972;22;20002;-68
2023/01/03 02:48:34;;;;;;;79.63;43.53;;;;;;;;;;6277080;22;20334;-69
2023/01/03 02:51:01;;;;;;;76.88;43.17;;;;;;;;;;6276855;22;20000;-67
2023/01/03 02:53:30;;;;;;;79.43;43.70;;;;;;;;;;6276785;22;20004;-68
2023/01/03 02:56:00;;;;;;;73.80;43.97;;;;;;;;;;6276997;22;20007;-68
2023/01/03 02:58:27;;;;;;;70.43;42.35;;;;;;;;;;6276803;22;20011;-67
2023/01/03 03:00:54;;;;;;;70.53;41.78;;;;;;;;;;6276720;22;20008;-68
2023/01/03 03:03:23;;;;;;;64.80;40.95;;;;;;;;;;6276363;22;20027;-69
2023/01/03 03:06:09;;;;;;;70.13;41.17;;;;;;;;;;6276582;22;20336;-68
2023/01/03 03:08:36;;;;;;;68.25;40.55;;;;;;;;;;6276420;22;20079;-67
2023/01/03 03:13:48;;;;;;;70.45;40.20;;;;;;;;;;6276764;22;20011;-68
2023/01/03 03:16:46;;;;;;;67.28;39.05;;;;;;;;;;6276697;22;20004;-68
2023/01/03 03:24:48;;;;;;;63.50;39.42;;;;;;;;;;6276443;22;20015;-69
2023/01/03 03:24:49;;;;;;;65.72;39.35;;;;;;;;;;6276730;22;20015;-68
2023/01/03 03:30:02;;;;;;;64.93;39.15;;;;;;;;;;6276784;22;20141;-68
2023/01/03 03:32:30;;;;;;;60.75;37.65;;;;;;;;;;6276125;22;20058;-71
2023/01/03 03:34:57;;;;;;;61.15;37.05;;;;;;;;;;6276303;22;20004;-68
2023/01/03 03:37:24;;;;;;;61.78;37.10;;;;;;;;;;6276323;22;20034;-67
2023/01/03 03:45:35;;;;;;;58.42;35.80;;;;;;;;;;6276081;22;20385;-68
2023/01/03 03:48:17;;;;;;;56.38;34.92;;;;;;;;;;6276516;22;20007;-69
2023/01/03 03:50:52;;;;;;;57.85;34.90;;;;;;;;;;6276175;22;19995;-68
2023/01/03 03:53:19;;;;;;;53.97;34.58;;;;;;;;;;6276447;22;20000;-68
2023/01/03 03:55:50;;;;;;;55.63;34.67;;;;;;;;;;6276537;22;19999;-68
2023/01/03 03:58:30;;;;;;;51.58;33.40;;;;;;;;;;6276190;22;20449;-67
2023/01/03 04:00:56;;;;;;;54.92;32.80;;;;;;;;;;6276107;22;20011;-75
2023/01/03 04:03:23;;;;;;;52.05;33.33;;;;;;;;;;6276041;22;20000;-69
2023/01/03 04:05:55;;;;;;;49.88;32.28;;;;;;;;;;6249015;22;20014;-68
2023/01/03 04:08:21;;;;;;;47.58;30.70;;;;;;;;;;6276323;22;20478;-68
2023/01/03 04:10:47;;;;;;;49.47;31.30;;;;;;;;;;6276645;22;20007;-67
2023/01/03 04:13:13;;;;;;;45.75;31.20;;;;;;;;;;6276005;22;20095;-66
2023/01/03 04:15:39;;;;;;;52.03;31.30;;;;;;;;;;6276004;22;19999;-67
2023/01/03 04:18:05;;;;;;;51.35;32.80;;;;;;;;;;6275995;22;20407;-68
2023/01/03 04:20:31;;;;;;;45.80;31.02;;;;;;;;;;6275878;22;20012;-70
2023/01/03 04:22:57;;;;;;;44.78;30.08;;;;;;;;;;6275853;22;20000;-68
2023/01/03 04:25:23;;;;;;;46.97;31.08;;;;;;;;;;6275755;22;19999;-68
2023/01/03 04:27:49;;;;;;;46.13;31.05;;;;;;;;;;6275995;22;20035;-67
2023/01/03 04:30:15;;;;;;;49.90;31.58;;;;;;;;;;6276029;22;20004;-68
2023/01/03 04:32:41;;;;;;;47.75;30.60;;;;;;;;;;6275879;22;20024;-67
2023/01/03 04:35:08;;;;;;;43.67;30.85;;;;;;;;;;6276184;22;20011;-68
2023/01/03 04:37:34;;;;;;;47.92;31.40;;;;;;;;;;6276059;22;20004;-67
2023/01/03 04:40:00;;;;;;;49.40;31.80;;;;;;;;;;6275886;22;20011;-68
2023/01/03 04:45:11;;;;;;;47.15;30.77;;;;;;;;;;6275792;22;20014;-68
2023/01/03 04:47:37;;;;;;;44.55;29.40;;;;;;;;;;6275854;22;19992;-68
2023/01/03 04:50:03;;;;;;;42.78;29.02;;;;;;;;;;6275957;22;20082;-68
2023/01/03 04:52:29;;;;;;;44.20;30.92;;;;;;;;;;6276293;22;20071;-68
2023/01/03 04:54:55;;;;;;;42.38;28.63;;;;;;;;;;6276159;22;20074;-71
2023/01/03 04:57:21;;;;;;;39.33;26.90;;;;;;;;;;6275940;22;19999;-68
2023/01/03 04:59:47;;;;;;;34.90;26.50;;;;;;;;;;6275786;22;20007;-67
2023/01/03 05:02:13;;;;;;;35.28;26.90;;;;;;;;;;6276262;22;20096;-68
2023/01/03 05:04:39;;;;;;;37.58;25.80;;;;;;;;;;6276062;22;20011;-68
2023/01/03 05:07:05;;;;;;;41.67;26.45;;;;;;;;;;6276131;22;20049;-67
2023/01/03 05:09:31;;;;;;;37.15;26.75;;;;;;;;;;6276108;22;20074;-68
2023/01/03 05:11:57;;;;;;;36.83;26.38;;;;;;;;;;6275335;22;20053;-67
2023/01/03 05:14:23;;;;;;;38.88;27.25;;;;;;;;;;6275852;22;20004;-72
2023/01/03 05:16:49;;;;;;;34.05;24.98;;;;;;;;;;6278050;22;19995;-68
2023/01/03 05:19:15;;;;;;;37.55;25.83;;;;;;;;;;6277616;22;20080;-67
2023/01/03 05:27:11;;;;;;;41.00;27.23;;;;;;;;;;6277416;22;20365;-68
2023/01/03 05:29:37;;;;;;;39.25;27.58;;;;;;;;;;6277809;22;20045;-67
2023/01/03 05:32:03;;;;;;;39.00;26.60;;;;;;;;;;6277858;22;20321;-68
2023/01/03 05:34:29;;;;;;;35.47;26.15;;;;;;;;;;6277972;22;20000;-68
2023/01/03 05:36:55;;;;;;;38.67;26.65;;;;;;;;;;6277420;22;20018;-67
2023/01/03 05:39:21;;;;;;;40.67;26.88;;;;;;;;;;6277646;22;20494;-68
2023/01/03 05:41:59;;;;;;;32.70;24.52;;;;;;;;;;6277674;22;20000;-67
2023/01/03 05:44:26;;;;;;;32.58;24.48;;;;;;;;;;6277601;22;20032;-67
2023/01/03 05:46:52;;;;;;;28.80;22.48;;;;;;;;;;6277279;22;19996;-67
2023/01/03 05:49:18;;;;;;;31.77;23.05;;;;;;;;;;6277627;22;20081;-67
2023/01/03 05:51:44;;;;;;;29.63;21.70;;;;;;;;;;6277652;22;20007;-68
2023/01/03 05:54:13;;;;;;;30.48;21.65;;;;;;;;;;6277168;22;20004;-68
2023/01/03 05:56:39;;;;;;;27.25;20.33;;;;;;;;;;6277854;22;20334;-68
2023/01/03 05:59:06;;;;;;;26.88;20.00;;;;;;;;;;6277161;22;20000;-68
2023/01/03 06:01:32;;;;;;;26.13;20.25;;;;;;;;;;6277233;22;20012;-68
2023/01/03 06:03:58;;;;;;;27.38;20.45;;;;;;;;;;6277522;22;20303;-68
2023/01/03 06:06:25;;;;;;;24.38;19.40;;;;;;;;;;6277367;22;20330;-68
2023/01/03 06:08:51;;;;;;;22.00;18.17;;;;;;;;;;6277244;22;20129;-67
2023/01/03 06:11:17;;;;;;;26.83;18.70;;;;;;;;;;6277340;22;20000;-67
2023/01/03 06:13:43;;;;;;;24.88;18.58;;;;;;;;;;6277081;22;20322;-67
2023/01/03 06:19:02;;;;;;;24.33;18.00;;;;;;;;;;6276873;22;20461;-68
2023/01/03 06:21:28;;;;;;;23.33;18.33;;;;;;;;;;6277322;22;20011;-68
2023/01/03 06:23:54;;;;;;;22.42;18.23;;;;;;;;;;6277277;22;20034;-67
2023/01/03 06:26:22;;;;;;;23.10;17.52;;;;;;;;;;6276737;22;20007;-68
2023/01/03 06:28:48;;;;;;;23.15;17.30;;;;;;;;;;6277431;22;20314;-68
2023/01/03 06:31:15;;;;;;;22.08;17.80;;;;;;;;;;6277458;22;20003;-68
2023/01/03 06:33:41;;;;;;;27.60;17.75;;;;;;;;;;6277304;22;20308;-68
2023/01/03 06:36:08;;;;;;;23.02;18.13;;;;;;;;;;6277044;22;20031;-69
2023/01/03 06:38:34;;;;;;;28.65;17.92;;;;;;;;;;6277287;22;19995;-70
2023/01/03 06:41:01;;;;;;;25.27;17.85;;;;;;;;;;6277154;22;20007;-67
2023/01/03 06:43:27;;;;;;;25.25;18.65;;;;;;;;;;6276881;22;20326;-68
2023/01/03 06:54:10;;;;;;;25.90;19.02;;;;;;;;;;6277117;22;20058;-68
2023/01/03 06:56:36;;;;;;;25.77;18.05;;;;;;;;;;6250033;22;20334;-68
2023/01/03 06:59:02;;;;;;;22.02;17.77;;;;;;;;;;6276820;22;20011;-68
2023/01/03 07:01:28;;;;;;;23.67;17.80;;;;;;;;;;6277086;22;20018;-68
2023/01/03 07:03:54;;;;;;;22.85;18.15;;;;;;;;;;6277117;22;20414;-70
2023/01/03 07:06:20;;;;;;;23.55;16.58;;;;;;;;;;6276920;22;20434;-68
2023/01/03 07:08:46;;;;;;;23.42;17.88;;;;;;;;;;6276615;22;20187;-67
2023/01/03 07:11:12;;;;;;;25.25;17.88;;;;;;;;;;6276078;22;20003;-68
2023/01/03 07:16:23;;;;;;;22.98;17.67;;;;;;;;;;6276544;22;20063;-68
2023/01/03 07:18:49;;;;;;;24.17;16.70;;;;;;;;;;6276979;22;20008;-68
2023/01/03 07:21:15;;;;;;;24.02;17.98;;;;;;;;;;6249333;22;20315;-68
2023/01/03 07:23:41;;;;;;;24.67;18.05;;;;;;;;;;6276161;22;20000;-68
2023/01/03 07:26:07;;;;;;;24.30;18.45;;;;;;;;;;6274602;22;20003;-67
2023/01/03 07:28:33;;;;;;;24.40;18.67;;;;;;;;;;6275614;22;20096;-67
2023/01/03 07:31:04;;;;;;;26.25;18.95;;;;;;;;;;6276001;22;20000;-67
2023/01/03 07:33:30;;;;;;;26.25;18.98;;;;;;;;;;6275926;22;20064;-70
2023/01/03 07:36:15;;;;;;;24.38;17.58;;;;;;;;;;6275904;22;20007;-71
2023/01/03 07:38:41;;;;;;;24.17;18.48;;;;;;;;;;6275238;22;20041;-68
2023/01/03 07:41:08;;;;;;;23.27;19.25;;;;;;;;;;6276100;22;20011;-67
2023/01/03 07:43:38;;;;;;;27.40;18.60;;;;;;;;;;6275674;22;19996;-71
2023/01/03 07:46:24;;;;;;;24.48;19.48;;;;;;;;;;6275596;22;20022;-68
2023/01/03 07:48:57;;;;;;;28.17;18.73;;;;;;;;;;6276338;22;20381;-66
2023/01/03 07:51:23;;;;;;;22.83;17.65;;;;;;;;;;6276191;22;20004;-67
2023/01/03 07:53:50;;;;;;;22.98;17.98;;;;;;;;;;6275515;22;20321;-67
2023/01/03 07:56:18;;;;;;;24.38;17.88;;;;;;;;;;6248491;22;20133;-66
2023/01/03 07:58:45;;;;;;;23.30;18.27;;;;;;;;;;6275342;22;20011;-68
2023/01/03 08:01:13;;;;;;;21.80;17.85;;;;;;;;;;6275722;22;20448;-67
2023/01/03 08:03:39;;;;;;;24.60;17.42;;;;;;;;;;6275893;22;20003;-68
2023/01/03 08:06:10;;;;;;;23.98;17.58;;;;;;;;;;6248045;22;19999;-67
2023/01/03 08:08:36;;;;;;;19.33;16.50;;;;;;;;;;6275926;22;20000;-66
2023/01/03 08:13:47;;;;;;;21.45;17.55;;;;;;;;;;6275678;22;20015;-67
2023/01/03 08:16:14;;;;;;;22.00;17.33;;;;;;;;;;6235544;22;20027;-67
2023/01/03 08:18:40;;;;;;;23.67;17.13;;;;;;;;;;6275456;22;20000;-67
2023/01/03 08:21:07;;;;;;;22.45;17.25;;;;;;;;;;6275250;22;20039;-67
2023/01/03 08:23:34;;;;;;;31.20;22.02;;;;;;;;;;6275047;22;20330;-67
2023/01/03 08:26:03;;;;;;;32.35;22.98;;;;;;;;;;6274918;22;20439;-68
2023/01/03 08:28:30;;;;;;;33.55;23.95;;;;;;;;;;6275242;22;20019;-66
2023/01/03 08:30:56;;;;;;;29.27;23.77;;;;;;;;;;6275042;22;20082;-68
2023/01/03 08:33:23;;;;;;;28.75;22.75;;;;;;;;;;6272394;22;20335;-68
2023/01/03 08:35:52;;;;;;;33.55;25.23;;;;;;;;;;6272743;22;20090;-68
2023/01/03 08:38:20;;;;;;;34.08;23.85;;;;;;;;;;6274648;22;20015;-68
2023/01/03 08:40:46;;;;;;;30.88;23.45;;;;;;;;;;6275382;22;20008;-68
2023/01/03 08:43:13;;;;;;;33.05;23.13;;;;;;;;;;6275637;22;19999;-69
2023/01/03 08:45:39;;;;;;;26.73;21.80;;;;;;;;;;6275726;22;20453;-68
2023/01/03 08:48:06;;;;;;;25.27;19.70;;;;;;;;;;6275837;22;20074;-69
2023/01/03 08:50:32;;;;;;;30.58;21.20;;;;;;;;;;6277562;22;20067;-67
2023/01/03 08:52:58;;;;;;;29.27;21.30;;;;;;;;;;6277776;22;20012;-67
2023/01/03 08:55:25;;;;;;;26.73;20.23;;;;;;;;;;6275184;22;20079;-71
2023/01/03 08:57:51;;;;;;;27.42;21.27;;;;;;;;;;6274076;22;20000;-67
2023/01/03 09:00:17;;;;;;;27.33;21.23;;;;;;;;;;6275796;22;20342;-68
2023/01/03 09:02:43;;;;;;;28.13;21.60;;;;;;;;;;6278158;22;20050;-67
2023/01/03 09:05:09;;;;;;;30.30;22.42;;;;;;;;;;6277626;22;20011;-68
2023/01/03 09:07:35;;;;;;;31.17;23.15;;;;;;;;;;6277790;22;20074;-68
2023/01/03 09:10:01;;;;;;;30.90;22.83;;;;;;;;;;6278017;22;20004;-68
2023/01/03 09:12:27;;;;;;;38.80;24.83;;;;;;;;;;6277461;22;20023;-68
2023/01/03 09:14:53;;;;;;;29.20;22.63;;;;;;;;;;6277378;22;20120;-69
2023/01/03 09:17:19;;;;;;;27.98;21.92;;;;;;;;;;6277532;22;20437;-68
2023/01/03 09:19:45;;;;;;;29.85;21.50;;;;;;;;;;6277442;22;20434;-68
2023/01/03 09:22:11;;;;;;;28.33;21.55;;;;;;;;;;6277477;22;20000;-68
2023/01/03 09:24:37;;;;;;;25.05;20.20;;;;;;;;;;6277532;22;20003;-67
2023/01/03 09:27:03;;;;;;;25.73;19.70;;;;;;;;;;6277360;22;20070;-68
2023/01/03 09:29:29;;;;;;;32.08;20.60;;;;;;;;;;6277301;22;20083;-68
2023/01/03 09:31:55;;;;;;;30.63;20.75;;;;;;;;;;6277366;22;20058;-68
2023/01/03 09:34:22;;;;;;;26.88;19.95;;;;;;;;;;6277631;22;20003;-68
2023/01/03 09:36:48;;;;;;;29.95;20.75;;;;;;;;;;6277714;22;19995;-69
2023/01/03 09:39:14;;;;;;;26.95;19.75;;;;;;;;;;6277334;22;20000;-68
2023/01/03 09:41:40;;;;;;;34.53;24.90;;;;;;;;;;6277162;22;20016;-67
2023/01/03 09:44:07;;;;;;;60.45;46.25;;;;;;;;;;6277406;22;20471;-68
2023/01/03 09:46:36;;;;;;;163.00;127.95;;;;;;;;;;6277271;22;19999;-68
2023/01/03 09:49:03;;;;;;;86.40;67.00;;;;;;;;;;6277299;22;20003;-67
2023/01/03 10:05:32;;;;;;;32.83;20.63;;;;;;;;;;6277379;22;20073;-67
2023/01/03 10:07:59;;;;;;;24.52;18.50;;;;;;;;;;6276630;22;20027;-68
2023/01/03 10:10:48;;;;;;;24.15;18.80;;;;;;;;;;6277287;22;20022;-68
2023/01/03 10:13:33;;;;;;;30.35;18.25;;;;;;;;;;6277209;22;19999;-68
2023/01/03 10:16:15;;;;;;;31.50;20.40;;;;;;;;;;6276819;22;20330;-68
2023/01/03 10:18:50;;;;;;;31.77;23.67;;;;;;;;;;6276745;22;20007;-69
2023/01/03 10:21:28;;;;;;;34.30;23.63;;;;;;;;;;6276682;22;20015;-69
2023/01/03 10:23:55;;;;;;;31.10;22.05;;;;;;;;;;6277323;22;20071;-70
2023/01/03 10:26:24;;;;;;;40.70;24.23;;;;;;;;;;6276791;22;20485;-67
2023/01/03 10:28:50;;;;;;;40.80;24.00;;;;;;;;;;6277300;22;20310;-68
2023/01/03 10:31:25;;;;;;;46.40;25.58;;;;;;;;;;6277200;22;20353;-67
2023/01/03 10:33:52;;;;;;;33.08;22.08;;;;;;;;;;6277322;22;20010;-68
2023/01/03 10:36:19;;;;;;;35.53;22.63;;;;;;;;;;6277165;22;19995;-68
2023/01/03 10:38:45;;;;;;;31.60;21.85;;;;;;;;;;6276805;22;20326;-67
2023/01/03 10:41:29;;;;;;;35.35;20.33;;;;;;;;;;6277082;22;20442;-67
2023/01/03 10:43:56;;;;;;;24.67;17.88;;;;;;;;;;6277058;22;20006;-68
2023/01/03 10:46:24;;;;;;;24.55;18.27;;;;;;;;;;6276710;22;20418;-69
2023/01/03 10:48:51;;;;;;;22.23;16.80;;;;;;;;;;6276974;22;20030;-68
2023/01/03 10:51:30;;;;;;;40.88;20.08;;;;;;;;;;6276675;22;20071;-67
2023/01/03 10:53:57;;;;;;;30.20;19.40;;;;;;;;;;6276637;22;20430;-67
2023/01/03 10:56:23;;;;;;;30.83;21.05;;;;;;;;;;6276761;22;19995;-68
2023/01/03 10:59:09;;;;;;;36.75;21.02;;;;;;;;;;6276804;22;19995;-68
2023/01/03 11:01:35;;;;;;;42.80;19.83;;;;;;;;;;6276160;22;20039;-67
2023/01/03 11:04:14;;;;;;;29.38;19.40;;;;;;;;;;6276403;22;20003;-67
2023/01/03 11:06:59;;;;;;;36.80;20.42;;;;;;;;;;6276434;22;20008;-70
2023/01/03 11:09:49;;;;;;;33.13;20.10;;;;;;;;;;6276540;22;20011;-69
2023/01/03 11:12:21;;;;;;;33.35;19.52;;;;;;;;;;6264515;22;20026;-69
2023/01/03 11:14:51;;;;;;;31.93;19.67;;;;;;;;;;6276642;22;20083;-70
2023/01/03 11:17:18;;;;;;;35.25;21.20;;;;;;;;;;6276375;22;20602;-71
2023/01/03 11:19:44;;;;;;;34.10;20.48;;;;;;;;;;6276016;22;20000;-70
2023/01/03 11:22:16;;;;;;;36.53;19.55;;;;;;;;;;6276890;22;20005;-70
2023/01/03 11:24:46;;;;;;;42.20;20.15;;;;;;;;;;6276500;22;20075;-70
2023/01/03 11:27:41;;;;;;;34.40;20.20;;;;;;;;;;6276377;22;20011;-70
2023/01/03 11:30:25;;;;;;;34.80;19.65;;;;;;;;;;6194215;22;20451;-70
2023/01/03 11:32:54;;;;;;;34.35;20.35;;;;;;;;;;6276055;22;20003;-70
2023/01/03 11:35:26;;;;;;;33.80;20.95;;;;;;;;;;6276327;22;20430;-70
2023/01/03 11:38:01;;;;;;;38.53;21.42;;;;;;;;;;6276106;22;20434;-70
2023/01/03 11:40:48;;;;;;;39.72;24.33;;;;;;;;;;6249200;22;20035;-70
2023/01/03 11:43:14;;;;;;;29.25;18.45;;;;;;;;;;6248928;22;20007;-69
2023/01/03 11:45:40;;;;;;;27.60;17.50;;;;;;;;;;6275831;22;20442;-70
2023/01/03 11:48:18;;;;;;;31.95;21.05;;;;;;;;;;6276136;22;20085;-70
2023/01/03 11:50:54;;;;;;;34.78;19.30;;;;;;;;;;6276195;22;20330;-69
2023/01/03 11:53:22;;;;;;;25.40;16.92;;;;;;;;;;6276241;22;20438;-69
2023/01/03 11:55:58;;;;;;;27.88;16.83;;;;;;;;;;6276202;22;20011;-70
2023/01/03 11:58:24;;;;;;;25.95;14.75;;;;;;;;;;6276038;22;20004;-69
2023/01/03 12:01:08;;;;;;;26.40;15.43;;;;;;;;;;6275945;22;20405;-69
2023/01/03 12:03:53;;;;;;;28.25;15.43;;;;;;;;;;6276070;22;20066;-70
2023/01/03 12:06:19;;;;;;;25.95;15.40;;;;;;;;;;6276275;22;20003;-70
2023/01/03 12:08:48;;;;;;;27.80;15.75;;;;;;;;;;6276563;22;20026;-71
2023/01/03 12:11:33;;;;;;;29.80;15.95;;;;;;;;;;6276020;22;20000;-71
2023/01/03 12:14:03;;;;;;;32.17;17.35;;;;;;;;;;6276230;22;20434;-69
2023/01/03 12:16:32;;;;;;;27.95;16.52;;;;;;;;;;6275812;22;20476;-69
2023/01/03 12:19:01;;;;;;;32.42;17.63;;;;;;;;;;6275714;22;20371;-70
2023/01/03 12:21:48;;;;;;;46.28;19.65;;;;;;;;;;6276055;22;20619;-70
2023/01/03 12:24:31;;;;;;;27.45;17.50;;;;;;;;;;6273936;22;20010;-70
2023/01/03 12:27:03;;;;;;;30.92;20.20;;;;;;;;;;6275502;22;20339;-70
2023/01/03 12:29:48;;;;;;;30.42;18.98;;;;;;;;;;6276189;22;20012;-69
2023/01/03 12:32:20;;;;;;;33.58;18.75;;;;;;;;;;6277862;22;20000;-69
2023/01/03 12:34:46;;;;;;;35.53;19.45;;;;;;;;;;6276147;22;20011;-70
2023/01/03 12:37:26;;;;;;;46.33;21.15;;;;;;;;;;6276913;22;20000;-70
2023/01/03 12:39:55;;;;;;;31.85;19.40;;;;;;;;;;6275451;22;19999;-70
2023/01/03 12:42:21;;;;;;;35.60;19.95;;;;;;;;;;6248610;22;20488;-70
2023/01/03 12:44:48;;;;;;;33.85;19.23;;;;;;;;;;6275734;22;20434;-71
2023/01/03 12:47:23;;;;;;;30.77;18.77;;;;;;;;;;6275595;22;20081;-69
2023/01/03 12:49:58;;;;;;;34.75;22.20;;;;;;;;;;6275852;22;20011;-69
2023/01/03 12:52:25;;;;;;;41.95;27.80;;;;;;;;;;6275734;22;20317;-70
2023/01/03 12:55:10;;;;;;;40.20;28.85;;;;;;;;;;6275494;22;20004;-70
2023/01/03 12:57:54;;;;;;;51.33;33.05;;;;;;;;;;6275606;22;20000;-71
2023/01/03 13:00:23;;;;;;;41.40;29.55;;;;;;;;;;6275576;22;20018;-70
2023/01/03 13:02:54;;;;;;;42.95;30.45;;;;;;;;;;6275365;22;20023;-71
2023/01/03 13:05:24;;;;;;;40.08;29.88;;;;;;;;;;6275765;22;20054;-71
2023/01/03 13:08:02;;;;;;;44.75;31.02;;;;;;;;;;6275689;22;19996;-72
2023/01/03 13:10:30;;;;;;;43.22;30.77;;;;;;;;;;6275910;22;20003;-72
2023/01/03 13:12:56;;;;;;;47.47;30.35;;;;;;;;;;6276074;22;20007;-71
2023/01/03 13:15:33;;;;;;;37.10;26.58;;;;;;;;;;6275753;22;19996;-73
2023/01/03 13:18:27;;;;;;;38.00;28.73;;;;;;;;;;6275690;22;20004;-71
2023/01/03 13:20:54;;;;;;;47.80;32.45;;;;;;;;;;6275513;22;20053;-73
2023/01/03 13:23:55;;;;;;;42.10;31.02;;;;;;;;;;6275584;22;20326;-71
2023/01/03 13:26:21;;;;;;;39.55;30.15;;;;;;;;;;6275683;22;20000;-71
2023/01/03 13:28:47;;;;;;;45.65;31.70;;;;;;;;;;6275568;22;20346;-71
2023/01/03 13:31:13;;;;;;;44.28;31.58;;;;;;;;;;6275391;22;19999;-72
2023/01/03 13:34:02;;;;;;;40.97;29.55;;;;;;;;;;6275821;22;20472;-72
2023/01/03 13:36:48;;;;;;;44.55;29.92;;;;;;;;;;6274860;22;20012;-73
2023/01/03 13:39:33;;;;;;;42.40;30.83;;;;;;;;;;6250471;22;20337;-73
2023/01/03 13:41:59;;;;;;;37.40;27.80;;;;;;;;;;6277550;22;20481;-72
2023/01/03 13:44:25;;;;;;;38.67;28.73;;;;;;;;;;6276693;22;20000;-72
2023/01/03 13:46:51;;;;;;;36.95;28.35;;;;;;;;;;6277056;22;20038;-73
2023/01/03 13:49:22;;;;;;;42.67;28.45;;;;;;;;;;6250554;22;20087;-73
2023/01/03 13:51:50;;;;;;;40.92;29.80;;;;;;;;;;6277658;22;20004;-72
2023/01/03 13:54:16;;;;;;;37.70;28.13;;;;;;;;;;6277461;22;20002;-73
2023/01/03 13:56:42;;;;;;;38.95;27.52;;;;;;;;;;6277157;22;20026;-72
2023/01/03 13:59:14;;;;;;;36.75;26.50;;;;;;;;;;6277013;22;20003;-71
2023/01/03 14:01:49;;;;;;;35.73;25.43;;;;;;;;;;6277544;22;20019;-70
2023/01/03 14:04:34;;;;;;;32.90;23.33;;;;;;;;;;6277120;22;20301;-70
2023/01/03 14:07:00;;;;;;;30.83;23.65;;;;;;;;;;6276878;22;20003;-73
2023/01/03 14:09:26;;;;;;;33.85;25.02;;;;;;;;;;6277093;22;20008;-69
2023/01/03 14:12:21;;;;;;;35.90;25.63;;;;;;;;;;6277353;22;20006;-70
2023/01/03 14:14:57;;;;;;;36.15;26.00;;;;;;;;;;6257417;22;20008;-70
2023/01/03 14:17:32;;;;;;;37.53;26.15;;;;;;;;;;6276889;22;20000;-71
2023/01/03 14:20:03;;;;;;;36.08;27.05;;;;;;;;;;6276861;22;20000;-71
2023/01/03 14:22:36;;;;;;;41.85;27.20;;;;;;;;;;6277098;22;20426;-70
2023/01/03 14:25:03;;;;;;;44.88;28.30;;;;;;;;;;6277444;22;20426;-71
2023/01/03 14:27:32;;;;;;;41.88;26.60;;;;;;;;;;6277151;22;20008;-70
2023/01/03 14:29:58;;;;;;;40.97;26.02;;;;;;;;;;6276806;22;20437;-70
2023/01/03 14:32:28;;;;;;;45.70;26.77;;;;;;;;;;6277103;22;20007;-70
2023/01/03 14:34:54;;;;;;;49.35;25.90;;;;;;;;;;6276940;22;20000;-70
2023/01/03 14:37:23;;;;;;;51.67;25.80;;;;;;;;;;6276727;22;20057;-71
2023/01/03 14:39:52;;;;;;;44.47;26.85;;;;;;;;;;6276498;22;20049;-70
2023/01/03 14:42:18;;;;;;;45.30;26.70;;;;;;;;;;6276671;22;20353;-70
2023/01/03 14:44:49;;;;;;;57.17;27.30;;;;;;;;;;6276901;22;20000;-70
2023/01/03 14:47:16;;;;;;;47.75;27.65;;;;;;;;;;6249725;22;20008;-77
2023/01/03 14:49:46;;;;;;;48.33;25.92;;;;;;;;;;6276922;22;20022;-78
2023/01/03 14:52:13;;;;;;;54.13;27.92;;;;;;;;;;6277149;22;20004;-78
2023/01/03 14:54:42;;;;;;;42.30;26.58;;;;;;;;;;6277291;22;19996;-77
2023/01/03 14:57:15;;;;;;;43.75;26.42;;;;;;;;;;6276801;22;20003;-78
2023/01/03 14:59:41;;;;;;;43.67;25.20;;;;;;;;;;6276653;22;20054;-78
2023/01/03 15:02:10;;;;;;;40.92;25.90;;;;;;;;;;6276554;22;20427;-77
2023/01/03 15:04:40;;;;;;;46.53;25.23;;;;;;;;;;6276801;22;19995;-78
2023/01/03 15:07:06;;;;;;;44.08;26.85;;;;;;;;;;6276693;22;19995;-78
2023/01/03 15:09:34;;;;;;;43.72;26.33;;;;;;;;;;6276812;22;20053;-77
2023/01/03 15:12:04;;;;;;;38.90;25.75;;;;;;;;;;6276996;22;20000;-69
2023/01/03 15:14:37;;;;;;;47.53;29.23;;;;;;;;;;6276754;22;20034;-70
2023/01/03 15:17:03;;;;;;;45.95;28.88;;;;;;;;;;6276335;22;20004;-73
2023/01/03 15:19:30;;;;;;;41.88;26.73;;;;;;;;;;6276587;22;20004;-74
2023/01/03 15:22:15;;;;;;;44.05;28.52;;;;;;;;;;6276313;22;20015;-73
2023/01/03 15:24:45;;;;;;;47.38;28.98;;;;;;;;;;6276304;22;20273;-73
2023/01/03 15:27:29;;;;;;;49.30;29.63;;;;;;;;;;6276334;22;20435;-70